Archival Weather

Chicago O'Hare International

Chicago, Illinois (KORD)

Report from: Sunday, March 6, 2022 6:51 PM CST
Current time: Saturday, February 4, 2023 10:01 PM CST

Current weather
Weather history
Weather forecast

Temperature3.3°C (37.9°F)
Wind chill1.9°C (35.5°F)
Dew point-2.2°C (28.0°F)
Winds 3 kts (1.5 m/s, 3.5 mph) West (270°)
Visibility10 mi. (16.1 km)
Clouds Scattered clouds 2,700 ft. (823 m)
Ceiling: Broken clouds 20,000 ft. (6,096 m)
Altimeter30.03 in.Hg (1017 mB)
Relative humidity67 %
Density altitude-1,464 ft. (-446 m)
Sea-level pressure101.7 kPa (1017 mB, 30.04 in.Hg)
Remarks System requires maintenance
Automated weather observing station with precipitation discriminator
Flight conditions Visual Meteorological Conditions
Raw dataKORD 070051Z 27003KT 10SM SCT027 BKN200 03/M02 A3003 RMK AO2 SLP173 T00331022 $
An unhandled exception has occurred. See browser dev tools for details. Reload 🗙